createdAt,value
2018-12-18T00:01:54.166Z,47.87
2018-12-18T00:04:22.702Z,47.97
2018-12-18T00:06:51.199Z,48.60
2018-12-18T00:09:19.580Z,48.27
2018-12-18T00:11:47.797Z,49.80
2018-12-18T00:14:16.138Z,48.80
2018-12-18T00:16:44.415Z,49.00
2018-12-18T00:19:12.681Z,50.23
2018-12-18T00:21:40.914Z,47.97
2018-12-18T00:24:09.186Z,47.23
2018-12-18T00:26:37.521Z,48.30
2018-12-18T00:29:05.744Z,46.73
2018-12-18T00:31:35.621Z,46.43
2018-12-18T00:34:04.094Z,47.40
2018-12-18T00:36:32.351Z,45.30
2018-12-18T00:39:00.732Z,45.63
2018-12-18T00:41:28.960Z,44.83
2018-12-18T00:43:57.233Z,43.67
2018-12-18T00:46:25.467Z,44.17
2018-12-18T00:48:53.755Z,42.70
2018-12-18T00:51:22.012Z,46.23
2018-12-18T00:53:50.258Z,47.57
2018-12-18T00:56:18.584Z,46.23
2018-12-18T00:58:46.856Z,45.73
2018-12-18T01:01:15.055Z,44.70
2018-12-18T01:03:43.389Z,45.00
2018-12-18T01:06:11.792Z,44.63
2018-12-18T01:08:41.121Z,44.40
2018-12-18T01:11:09.446Z,45.93
2018-12-18T01:16:30.190Z,46.87
2018-12-18T01:21:51.359Z,45.67
2018-12-18T01:24:19.696Z,45.60
2018-12-18T01:26:47.920Z,46.00
2018-12-18T01:29:16.161Z,44.47
2018-12-18T01:31:44.469Z,43.60
2018-12-18T01:34:12.749Z,43.63
2018-12-18T01:36:41.130Z,45.43
2018-12-18T01:39:09.352Z,45.87
2018-12-18T01:41:37.624Z,46.60
2018-12-18T01:44:05.876Z,46.17
2018-12-18T01:46:34.202Z,45.53
2018-12-18T01:49:02.440Z,45.63
2018-12-18T01:51:30.681Z,46.73
2018-12-18T01:53:58.922Z,47.17
2018-12-18T01:56:27.192Z,45.97
2018-12-18T01:58:55.581Z,44.53
2018-12-18T02:01:23.905Z,45.10
2018-12-18T02:03:52.153Z,43.97
2018-12-18T02:06:20.402Z,43.30
2018-12-18T02:08:48.693Z,45.43
2018-12-18T02:11:16.954Z,43.63
2018-12-18T02:13:45.230Z,43.57
2018-12-18T02:16:13.508Z,43.00
2018-12-18T02:18:41.948Z,43.60
2018-12-18T02:21:10.214Z,45.17
2018-12-18T02:23:38.911Z,44.63
2018-12-18T02:26:07.170Z,42.83
2018-12-18T02:28:35.410Z,42.73
2018-12-18T02:31:03.712Z,43.47
2018-12-18T02:33:32.111Z,43.00
2018-12-18T02:36:00.391Z,41.97
2018-12-18T02:38:28.842Z,43.47
2018-12-18T02:40:57.126Z,43.20
2018-12-18T02:43:25.384Z,42.40
2018-12-18T02:45:54.722Z,41.87
2018-12-18T02:48:23.250Z,40.00
2018-12-18T02:50:51.560Z,42.30
2018-12-18T02:53:19.974Z,44.03
2018-12-18T02:55:48.355Z,40.93
2018-12-18T02:58:16.681Z,39.90
2018-12-18T03:00:44.929Z,38.00
2018-12-18T03:03:13.545Z,41.00
2018-12-18T03:05:42.023Z,39.37
2018-12-18T03:08:10.241Z,39.80
2018-12-18T03:10:38.530Z,38.60
2018-12-18T03:13:06.789Z,40.20
2018-12-18T03:15:35.037Z,40.20
2018-12-18T03:18:03.253Z,41.33
2018-12-18T03:20:31.524Z,40.00
2018-12-18T03:22:59.759Z,41.43
2018-12-18T03:25:28.107Z,41.90
2018-12-18T03:27:56.900Z,40.57
2018-12-18T03:30:25.131Z,41.10
2018-12-18T03:32:55.900Z,41.57
2018-12-18T03:35:24.158Z,40.57
2018-12-18T03:37:52.423Z,41.17
2018-12-18T03:40:20.697Z,40.93
2018-12-18T03:42:48.934Z,41.13
2018-12-18T03:45:17.192Z,42.63
2018-12-18T03:47:45.432Z,40.00
2018-12-18T03:50:13.797Z,40.73
2018-12-18T03:52:42.045Z,41.47
2018-12-18T03:55:10.333Z,39.97
2018-12-18T03:57:38.608Z,40.50
2018-12-18T04:00:09.308Z,39.33
2018-12-18T04:02:37.638Z,39.33
2018-12-18T04:05:06.603Z,39.53
2018-12-18T04:07:34.940Z,39.57
2018-12-18T04:10:03.279Z,37.00
2018-12-18T04:12:31.503Z,39.67
2018-12-18T04:14:59.810Z,39.73
2018-12-18T04:17:28.128Z,40.13
2018-12-18T04:19:56.431Z,38.93
2018-12-18T04:22:24.693Z,39.07
2018-12-18T04:24:52.945Z,41.23
2018-12-18T04:27:21.177Z,39.17
2018-12-18T04:29:49.407Z,38.83
2018-12-18T04:32:17.683Z,41.07
2018-12-18T04:34:45.971Z,40.97
2018-12-18T04:37:14.488Z,40.50
2018-12-18T04:39:42.749Z,40.30
2018-12-18T04:42:10.993Z,40.20
2018-12-18T04:44:39.316Z,40.57
2018-12-18T04:47:07.527Z,40.83
2018-12-18T04:49:35.769Z,40.53
2018-12-18T04:52:04.118Z,40.00
2018-12-18T04:54:32.363Z,42.73
2018-12-18T04:57:00.620Z,38.20
2018-12-18T04:59:28.838Z,40.70
2018-12-18T05:01:57.076Z,38.30
2018-12-18T05:04:25.292Z,38.93
2018-12-18T05:06:53.658Z,39.23
2018-12-18T05:09:21.892Z,37.63
2018-12-18T05:11:50.156Z,36.77
2018-12-18T05:14:18.403Z,36.57
2018-12-18T05:16:46.650Z,35.20
2018-12-18T05:19:14.889Z,34.30
2018-12-18T05:21:43.239Z,34.80
2018-12-18T05:24:11.485Z,36.20
2018-12-18T05:26:39.699Z,34.23
2018-12-18T05:29:07.980Z,32.37
2018-12-18T05:31:36.644Z,33.23
2018-12-18T05:34:05.001Z,33.57
2018-12-18T05:36:33.528Z,34.07
2018-12-18T05:39:01.853Z,33.30
2018-12-18T05:41:30.076Z,34.43
2018-12-18T05:43:58.883Z,32.97
2018-12-18T05:46:27.127Z,31.83
2018-12-18T05:48:55.904Z,31.93
2018-12-18T05:51:24.256Z,32.40
2018-12-18T05:53:52.537Z,32.00
2018-12-18T05:56:20.784Z,32.67
2018-12-18T05:58:49.040Z,31.30
2018-12-18T06:01:17.379Z,32.17
2018-12-18T06:03:45.713Z,33.57
2018-12-18T06:06:14.015Z,31.93
2018-12-18T06:08:42.230Z,32.83
2018-12-18T06:11:10.481Z,31.77
2018-12-18T06:13:38.762Z,31.03
2018-12-18T06:16:07.100Z,31.23
2018-12-18T06:18:35.934Z,32.17
2018-12-18T06:21:04.209Z,33.70
2018-12-18T06:23:33.077Z,32.93
2018-12-18T06:26:01.940Z,33.17
2018-12-18T06:28:30.159Z,33.23
2018-12-18T06:30:58.753Z,33.53
2018-12-18T06:33:27.025Z,32.27
2018-12-18T06:35:55.293Z,31.80
2018-12-18T06:38:23.672Z,32.73
2018-12-18T06:40:51.907Z,30.60
2018-12-18T06:43:20.178Z,30.90
2018-12-18T06:45:48.524Z,31.87
2018-12-18T06:48:16.752Z,30.53
2018-12-18T06:50:45.024Z,29.53
2018-12-18T06:53:13.285Z,31.63
2018-12-18T06:55:41.520Z,31.83
2018-12-18T06:58:09.816Z,31.07
2018-12-18T07:00:38.034Z,31.80
2018-12-18T07:03:06.378Z,32.57
2018-12-18T07:05:34.631Z,32.03
2018-12-18T07:08:03.002Z,32.93
2018-12-18T07:10:31.279Z,33.07
2018-12-18T07:12:59.514Z,33.33
2018-12-18T07:15:27.802Z,34.03
2018-12-18T07:17:56.067Z,35.17
2018-12-18T07:20:24.303Z,34.07
2018-12-18T07:22:52.927Z,31.70
2018-12-18T07:25:21.157Z,33.00
2018-12-18T07:27:49.402Z,33.37
2018-12-18T07:30:17.857Z,32.40
2018-12-18T07:32:46.081Z,31.63
2018-12-18T07:35:14.412Z,31.97
2018-12-18T07:37:42.656Z,33.17
2018-12-18T07:40:10.981Z,30.00
2018-12-18T07:42:39.212Z,30.83
2018-12-18T07:45:07.665Z,29.83
2018-12-18T07:47:35.941Z,28.70
2018-12-18T07:50:04.946Z,30.57
2018-12-18T07:52:33.201Z,29.30
2018-12-18T07:55:01.475Z,28.50
2018-12-18T07:57:29.702Z,29.67
2018-12-18T07:59:57.972Z,28.17
2018-12-18T08:02:26.287Z,28.63
2018-12-18T08:04:54.573Z,29.27
2018-12-18T08:07:22.890Z,27.53
2018-12-18T08:09:51.121Z,28.23
2018-12-18T08:12:23.528Z,25.77
2018-12-18T08:14:51.829Z,26.80
2018-12-18T08:17:20.148Z,24.70
2018-12-18T08:19:48.454Z,25.87
2018-12-18T08:22:16.718Z,24.50
2018-12-18T08:24:44.933Z,25.83
2018-12-18T08:27:13.233Z,24.50
2018-12-18T08:29:41.469Z,24.03
2018-12-18T08:32:09.729Z,24.70
2018-12-18T08:34:37.985Z,24.33
2018-12-18T08:37:06.261Z,24.77
2018-12-18T08:39:34.536Z,24.80
2018-12-18T08:42:02.890Z,23.73
2018-12-18T08:44:31.201Z,24.40
2018-12-18T08:47:05.875Z,23.30
2018-12-18T08:49:34.178Z,22.87
2018-12-18T08:52:02.467Z,22.87
2018-12-18T08:54:30.708Z,22.90
2018-12-18T08:56:58.942Z,22.27
2018-12-18T08:59:27.193Z,22.43
2018-12-18T09:01:55.662Z,21.80
2018-12-18T09:04:23.913Z,22.53
2018-12-18T09:06:52.162Z,23.20
2018-12-18T09:09:20.390Z,23.47
2018-12-18T09:11:48.644Z,24.93
2018-12-18T09:14:16.914Z,24.67
2018-12-18T09:16:50.599Z,25.47
2018-12-18T09:19:19.664Z,24.30
2018-12-18T09:21:47.928Z,23.33
2018-12-18T09:24:16.185Z,22.17
2018-12-18T09:26:44.501Z,23.13
2018-12-18T09:29:12.912Z,24.50
2018-12-18T09:31:41.212Z,24.07
2018-12-18T09:34:09.597Z,24.30
2018-12-18T09:36:37.855Z,24.47
2018-12-18T09:39:13.617Z,25.20
2018-12-18T09:41:44.065Z,25.80
2018-12-18T09:44:16.278Z,23.20
2018-12-18T09:46:44.551Z,23.40
2018-12-18T09:49:12.799Z,24.40
2018-12-18T09:51:41.206Z,23.70
2018-12-18T09:54:09.651Z,25.90
2018-12-18T09:56:43.354Z,26.57
2018-12-18T09:59:11.742Z,26.83
2018-12-18T10:01:40.048Z,27.10
2018-12-18T10:04:08.295Z,28.07
2018-12-18T10:06:36.527Z,26.93
2018-12-18T10:09:09.708Z,28.03
2018-12-18T10:11:38.102Z,27.93
2018-12-18T10:14:06.623Z,29.27
2018-12-18T10:16:34.892Z,28.43
2018-12-18T10:19:03.136Z,28.93
2018-12-18T10:21:31.428Z,29.87
2018-12-18T10:23:59.696Z,28.73
2018-12-18T10:26:27.954Z,29.20
2018-12-18T10:28:56.207Z,29.60
2018-12-18T10:31:24.492Z,30.43
2018-12-18T10:33:52.835Z,31.73
2018-12-18T10:36:21.059Z,30.03
2018-12-18T10:38:49.367Z,32.07
2018-12-18T10:41:17.689Z,31.43
2018-12-18T10:43:46.074Z,31.27
2018-12-18T10:46:14.310Z,31.90
2018-12-18T10:48:42.787Z,32.03
2018-12-18T10:51:11.140Z,32.70
2018-12-18T10:53:39.381Z,33.77
2018-12-18T10:56:07.631Z,33.93
2018-12-18T10:58:35.842Z,33.33
2018-12-18T11:01:09.539Z,33.43
2018-12-18T11:03:37.780Z,33.07
2018-12-18T11:06:09.741Z,33.60
2018-12-18T11:08:36.421Z,32.47
2018-12-18T11:11:04.871Z,32.20
2018-12-18T11:13:33.133Z,30.97
2018-12-18T11:16:01.514Z,32.23
2018-12-18T11:18:29.783Z,32.67
2018-12-18T11:20:58.109Z,33.27
2018-12-18T11:23:26.368Z,32.67
2018-12-18T11:25:54.649Z,33.27
2018-12-18T11:28:22.925Z,34.37
2018-12-18T11:30:51.210Z,36.10
2018-12-18T11:33:19.508Z,35.97
2018-12-18T11:35:47.779Z,34.33
2018-12-18T11:38:16.070Z,34.10
2018-12-18T11:40:44.327Z,31.23
2018-12-18T11:43:12.586Z,33.67
2018-12-18T11:45:40.839Z,32.43
2018-12-18T11:48:09.314Z,33.70
2018-12-18T11:50:37.631Z,34.00
2018-12-18T11:53:06.111Z,36.00
2018-12-18T11:55:34.358Z,35.27
2018-12-18T11:58:02.629Z,36.17
2018-12-18T12:00:30.908Z,35.50
2018-12-18T12:02:59.161Z,34.23
2018-12-18T12:05:27.483Z,34.00
2018-12-18T12:07:55.752Z,37.10
2018-12-18T12:10:24.367Z,34.23
2018-12-18T12:12:52.643Z,33.07
2018-12-18T12:15:20.915Z,31.97
2018-12-18T12:17:49.440Z,32.50
2018-12-18T12:20:17.765Z,29.77
2018-12-18T12:22:46.044Z,29.07
2018-12-18T12:25:14.358Z,30.10
2018-12-18T12:27:48.021Z,29.30
2018-12-18T12:30:16.570Z,30.97
2018-12-18T12:32:45.105Z,29.13
2018-12-18T12:35:13.494Z,29.90
2018-12-18T12:37:41.787Z,29.50
2018-12-18T12:40:10.044Z,25.30
2018-12-18T12:42:38.398Z,26.53
2018-12-18T12:45:07.079Z,26.60
2018-12-18T12:47:35.729Z,28.43
2018-12-18T12:50:05.494Z,26.97
2018-12-18T12:52:33.762Z,27.47
2018-12-18T12:55:02.096Z,27.00
2018-12-18T12:57:30.374Z,26.00
2018-12-18T12:59:58.851Z,27.23
2018-12-18T13:02:27.148Z,24.03
2018-12-18T13:04:55.488Z,23.50
2018-12-18T13:07:23.804Z,23.33
2018-12-18T13:09:52.157Z,22.33
2018-12-18T13:12:20.414Z,22.30
2018-12-18T13:14:48.644Z,20.73
2018-12-18T13:17:16.965Z,21.00
2018-12-18T13:19:45.235Z,21.80
2018-12-18T13:25:07.199Z,22.23
2018-12-18T13:27:35.512Z,21.70
2018-12-18T13:32:56.309Z,24.77
2018-12-18T13:35:24.816Z,22.70
2018-12-18T13:37:53.073Z,28.00
2018-12-18T13:40:21.402Z,17.50
2018-12-18T13:42:49.696Z,22.43
2018-12-18T13:45:17.932Z,20.43
2018-12-18T13:47:46.204Z,20.23
2018-12-18T13:50:14.462Z,20.87
2018-12-18T13:52:42.831Z,19.07
2018-12-18T13:55:11.164Z,18.50
2018-12-18T13:57:39.502Z,16.63
2018-12-18T14:00:07.967Z,14.47
2018-12-18T14:02:36.309Z,17.40
2018-12-18T14:05:04.676Z,17.03
2018-12-18T14:07:32.982Z,18.13
2018-12-18T14:10:01.566Z,17.27
2018-12-18T14:12:29.823Z,20.00
2018-12-18T14:14:58.165Z,18.33
2018-12-18T14:17:26.441Z,18.43
2018-12-18T14:19:55.251Z,13.07
2018-12-18T14:22:23.515Z,10.90
2018-12-18T14:24:51.888Z,12.67
2018-12-18T14:27:20.168Z,14.70
2018-12-18T14:29:48.618Z,18.90
2018-12-18T14:32:16.875Z,20.50
2018-12-18T14:34:45.194Z,20.17
2018-12-18T14:37:13.684Z,17.93
2018-12-18T14:39:42.016Z,18.53
2018-12-18T14:42:10.342Z,16.90
2018-12-18T14:44:38.621Z,18.00
2018-12-18T14:47:06.857Z,18.27
2018-12-18T14:49:35.199Z,16.87
2018-12-18T14:52:03.444Z,18.37
2018-12-18T14:54:32.116Z,18.20
2018-12-18T14:57:00.786Z,17.23
2018-12-18T14:59:29.077Z,15.13
2018-12-18T15:01:57.764Z,14.80
2018-12-18T15:04:26.712Z,16.07
2018-12-18T15:06:55.101Z,15.60
2018-12-18T15:09:23.660Z,13.43
2018-12-18T15:11:51.984Z,11.07
2018-12-18T15:14:43.416Z,12.57
2018-12-18T15:17:11.721Z,12.73
2018-12-18T15:19:39.982Z,10.17
2018-12-18T15:22:08.500Z,11.67
2018-12-18T15:24:36.848Z,10.20
2018-12-18T15:27:05.191Z,11.67
2018-12-18T15:29:33.434Z,9.63
2018-12-18T15:32:01.707Z,9.17
2018-12-18T15:34:29.999Z,10.97
2018-12-18T15:36:58.291Z,15.43
2018-12-18T15:39:26.628Z,13.27
2018-12-18T15:41:54.903Z,12.43
2018-12-18T15:44:23.180Z,14.20
2018-12-18T15:46:51.403Z,13.80
2018-12-18T15:49:19.837Z,15.67
2018-12-18T15:51:48.504Z,13.90
2018-12-18T15:54:16.906Z,14.00
2018-12-18T15:56:45.164Z,14.00
2018-12-18T15:59:13.437Z,15.90
2018-12-18T16:01:41.671Z,15.63
2018-12-18T16:04:09.969Z,14.43
2018-12-18T16:06:38.285Z,13.60
2018-12-18T16:09:08.432Z,11.10
2018-12-18T16:11:36.772Z,11.23
2018-12-18T16:14:05.171Z,15.30
2018-12-18T16:16:33.631Z,11.87
2018-12-18T16:19:02.149Z,11.47
2018-12-18T16:21:30.382Z,10.97
2018-12-18T16:23:58.771Z,11.50
2018-12-18T16:26:27.051Z,10.77
2018-12-18T16:28:55.453Z,9.47
2018-12-18T16:31:23.679Z,10.30
2018-12-18T16:33:52.076Z,10.93
2018-12-18T16:36:20.348Z,11.27
2018-12-18T16:38:48.564Z,10.90
2018-12-18T16:41:16.877Z,10.20
2018-12-18T16:43:45.216Z,10.77
2018-12-18T16:46:13.467Z,10.30
2018-12-18T16:48:41.784Z,9.77
2018-12-18T16:51:10.106Z,9.00
2018-12-18T16:53:38.371Z,9.17
2018-12-18T16:56:06.695Z,10.00
2018-12-18T16:58:34.894Z,10.20
2018-12-18T17:01:03.276Z,9.23
2018-12-18T17:03:31.593Z,9.60
2018-12-18T17:05:59.852Z,9.57
2018-12-18T17:08:28.135Z,9.13
2018-12-18T17:10:56.440Z,9.63
2018-12-18T17:13:24.699Z,9.87
2018-12-18T17:15:53.003Z,10.97
2018-12-18T17:18:21.225Z,9.00
2018-12-18T17:20:49.463Z,9.40
2018-12-18T17:23:17.718Z,9.73
2018-12-18T17:25:45.973Z,10.67
2018-12-18T17:28:14.196Z,11.57
2018-12-18T17:30:42.460Z,10.53
2018-12-18T17:33:10.816Z,12.03
2018-12-18T17:35:40.242Z,15.43
2018-12-18T17:38:08.619Z,11.20
2018-12-18T17:40:37.085Z,11.53
2018-12-18T17:43:05.342Z,12.67
2018-12-18T17:45:33.571Z,12.73
2018-12-18T17:48:01.833Z,11.50
2018-12-18T17:50:30.191Z,9.77
2018-12-18T17:52:58.426Z,10.30
2018-12-18T17:55:26.765Z,9.43
2018-12-18T17:57:55.128Z,11.03
2018-12-18T18:00:23.571Z,11.97
2018-12-18T18:02:51.968Z,10.77
2018-12-18T18:05:20.225Z,10.30
2018-12-18T18:07:48.459Z,11.80
2018-12-18T18:10:16.731Z,12.20
2018-12-18T18:12:44.930Z,10.90
2018-12-18T18:15:13.591Z,10.43
2018-12-18T18:17:41.922Z,10.97
2018-12-18T18:20:10.606Z,9.63
2018-12-18T18:22:39.027Z,11.97
2018-12-18T18:25:07.405Z,10.93
2018-12-18T18:27:35.621Z,10.97
2018-12-18T18:30:04.427Z,10.87
2018-12-18T18:32:32.797Z,11.30
2018-12-18T18:35:01.143Z,10.30
2018-12-18T18:37:29.564Z,15.50
2018-12-18T18:39:58.031Z,12.03
2018-12-18T18:42:26.368Z,11.13
2018-12-18T18:44:54.687Z,10.93
2018-12-18T18:47:23.010Z,10.43
2018-12-18T18:49:51.276Z,11.30
2018-12-18T18:52:19.940Z,11.80
2018-12-18T18:54:48.300Z,12.23
2018-12-18T18:57:16.570Z,12.57
2018-12-18T18:59:44.864Z,13.23
2018-12-18T19:02:13.171Z,13.37
2018-12-18T19:04:41.482Z,11.30
2018-12-18T19:07:09.809Z,13.30
2018-12-18T19:09:38.122Z,12.47
2018-12-18T19:12:06.466Z,13.00
2018-12-18T19:14:34.754Z,12.03
2018-12-18T19:17:03.058Z,11.20
2018-12-18T19:19:32.293Z,11.80
2018-12-18T19:22:00.596Z,13.23
2018-12-18T19:24:28.860Z,12.50
2018-12-18T19:26:57.157Z,17.33
2018-12-18T19:29:25.498Z,18.30
2018-12-18T19:31:53.837Z,14.40
2018-12-18T19:34:22.121Z,12.20
2018-12-18T19:36:50.907Z,13.00
2018-12-18T19:39:19.435Z,13.87
2018-12-18T19:41:47.698Z,16.00
2018-12-18T19:44:16.045Z,10.87
2018-12-18T19:46:44.256Z,10.33
2018-12-18T19:49:12.789Z,13.33
2018-12-18T19:51:41.032Z,13.07
2018-12-18T19:54:09.343Z,13.27
2018-12-18T19:56:37.725Z,12.50
2018-12-18T19:59:10.777Z,12.27
2018-12-18T20:01:36.656Z,11.47
2018-12-18T20:04:04.982Z,12.17
2018-12-18T20:06:33.306Z,13.47
2018-12-18T20:09:01.880Z,11.63
2018-12-18T20:11:30.369Z,10.30
2018-12-18T20:13:58.730Z,8.83
2018-12-18T20:16:26.977Z,10.00
2018-12-18T20:18:55.462Z,8.77
2018-12-18T20:21:23.999Z,11.83
2018-12-18T20:23:52.520Z,12.73
2018-12-18T20:26:21.475Z,10.40
2018-12-18T20:28:49.975Z,10.03
2018-12-18T20:31:18.427Z,11.10
2018-12-18T20:33:46.810Z,12.97
2018-12-18T20:36:15.159Z,12.63
2018-12-18T20:41:36.369Z,13.10
2018-12-18T20:44:04.833Z,13.53
2018-12-18T20:46:33.474Z,11.33
2018-12-18T20:49:01.886Z,13.47
2018-12-18T20:51:30.347Z,12.53
2018-12-18T20:53:58.896Z,13.90
2018-12-18T20:56:27.503Z,14.87
2018-12-18T20:58:55.985Z,14.83
2018-12-18T21:01:24.640Z,14.63
2018-12-18T21:03:53.066Z,14.47
2018-12-18T21:06:22.370Z,16.10
2018-12-18T21:08:50.850Z,14.23
2018-12-18T21:11:19.289Z,13.77
2018-12-18T21:13:47.825Z,13.57
2018-12-18T21:16:16.595Z,16.93
2018-12-18T21:18:44.942Z,14.60
2018-12-18T21:21:15.599Z,17.87
2018-12-18T21:23:50.570Z,16.77
2018-12-18T21:26:18.861Z,14.43
2018-12-18T21:28:47.151Z,13.10
2018-12-18T21:31:15.548Z,13.70
2018-12-18T21:33:43.914Z,12.90
2018-12-18T21:36:12.229Z,13.53
2018-12-18T21:38:40.491Z,13.60
2018-12-18T21:41:08.785Z,13.30
2018-12-18T21:43:37.207Z,13.90
2018-12-18T21:46:05.564Z,14.57
2018-12-18T21:48:33.961Z,12.40
2018-12-18T21:51:02.321Z,12.83
2018-12-18T21:53:30.912Z,14.23
2018-12-18T21:55:59.252Z,14.00
2018-12-18T21:58:27.560Z,12.90
2018-12-18T22:00:55.858Z,12.53
2018-12-18T22:03:24.125Z,12.00
2018-12-18T22:05:52.458Z,11.73
2018-12-18T22:08:20.754Z,12.60
2018-12-18T22:10:49.090Z,13.80
2018-12-18T22:13:17.378Z,13.60
2018-12-18T22:15:48.889Z,11.70
2018-12-18T22:18:17.206Z,12.13
2018-12-18T22:20:45.676Z,13.77
2018-12-18T22:23:14.018Z,11.97
2018-12-18T22:25:42.251Z,15.17
2018-12-18T22:28:10.710Z,11.80
2018-12-18T22:30:39.026Z,14.70
2018-12-18T22:33:07.347Z,15.70
2018-12-18T22:35:35.651Z,16.43
2018-12-18T22:38:03.968Z,13.50
2018-12-18T22:40:32.232Z,12.13
2018-12-18T22:43:00.664Z,12.87
2018-12-18T22:45:28.930Z,13.57
2018-12-18T22:47:57.167Z,12.40
2018-12-18T22:50:25.491Z,12.67
2018-12-18T22:52:53.746Z,11.97
2018-12-18T22:55:21.967Z,10.83
2018-12-18T22:57:50.741Z,11.17
2018-12-18T23:00:24.317Z,14.77
2018-12-18T23:02:56.760Z,13.10
2018-12-18T23:05:25.120Z,13.97
2018-12-18T23:07:53.400Z,17.67
2018-12-18T23:10:21.636Z,13.87
2018-12-18T23:12:49.917Z,13.53
2018-12-18T23:15:18.176Z,13.70
2018-12-18T23:17:46.548Z,11.87
2018-12-18T23:20:14.820Z,13.07
2018-12-18T23:22:43.070Z,13.40
2018-12-18T23:25:11.336Z,13.60
2018-12-18T23:27:39.641Z,14.03
2018-12-18T23:30:08.004Z,13.67
2018-12-18T23:32:36.242Z,14.73
2018-12-18T23:35:04.590Z,14.97
2018-12-18T23:37:32.856Z,15.63
2018-12-18T23:40:01.143Z,14.47
2018-12-18T23:42:29.438Z,17.23
2018-12-18T23:44:57.755Z,16.57
2018-12-18T23:47:26.016Z,15.60
2018-12-18T23:49:54.244Z,15.07
2018-12-18T23:52:22.861Z,16.27
2018-12-18T23:54:51.220Z,15.70
2018-12-18T23:57:19.442Z,16.27
2018-12-18T23:59:47.708Z,16.33
